Time;durP1;ratioP1;P1;durP2;ratioP2;P2;SDS_P1;SDS_P2;PMS_P1;PMS_P2;Temp;Humidity;BMP_temperature;BMP_pressure;BME280_temperature;BME280_humidity;BME280_pressure;Samples;Min_cycle;Max_cycle;Signal;HPM_P1;HPM_P2
2023/10/23 00:00:16;;;;;;;11.45;6.18;;;7.80;99.90;;;;;;25342849;23;20018;-52
2023/10/23 00:10:18;;;;;;;13.35;7.20;;;7.70;99.90;;;;;;25342641;23;20355;-49
2023/10/23 00:20:20;;;;;;;11.90;6.68;;;7.50;99.90;;;;;;25342718;23;20327;-51
2023/10/23 00:30:22;;;;;;;12.40;4.57;;;7.20;99.90;;;;;;25315590;23;20064;-57
2023/10/23 00:40:23;;;;;;;8.65;3.70;;;7.10;99.90;;;;;;25341826;23;20006;-58
2023/10/23 00:50:25;;;;;;;8.20;3.08;;;6.80;99.90;;;;;;25342413;23;20006;-53
2023/10/23 01:00:28;;;;;;;3.38;1.30;;;6.50;99.90;;;;;;25340624;23;20019;-51
2023/10/23 01:10:30;;;;;;;3.15;1.20;;;6.70;99.90;;;;;;25314607;23;20045;-58
2023/10/23 01:20:32;;;;;;;2.40;0.70;;;6.70;99.90;;;;;;25290037;23;20013;-54
2023/10/23 01:30:34;;;;;;;3.65;0.70;;;6.60;99.90;;;;;;25339863;23;20005;-51
2023/10/23 01:40:36;;;;;;;2.25;0.70;;;6.50;99.90;;;;;;25340041;23;20006;-53
2023/10/23 01:50:37;;;;;;;5.45;0.82;;;6.20;99.90;;;;;;25339728;23;20013;-51
2023/10/23 02:00:39;;;;;;;3.38;1.17;;;5.70;99.90;;;;;;25350989;23;20010;-49
2023/10/23 02:10:41;;;;;;;6.03;1.20;;;5.50;99.90;;;;;;25320991;23;20010;-58
2023/10/23 02:20:43;;;;;;;3.58;0.30;;;5.30;99.90;;;;;;25347114;23;20006;-52
2023/10/23 02:30:44;;;;;;;1.38;0.20;;;5.10;99.90;;;;;;25320672;23;20500;-49
2023/10/23 02:40:53;;;;;;;1.75;0.17;;;4.90;99.90;;;;;;25346964;23;20006;-49
2023/10/23 02:50:55;;;;;;;1.60;0.32;;;4.70;99.90;;;;;;25346495;23;20002;-51
2023/10/23 03:00:57;;;;;;;1.13;0.15;;;4.70;99.90;;;;;;25295913;23;20089;-58
2023/10/23 03:10:59;;;;;;;1.63;0.40;;;4.60;99.90;;;;;;25346143;23;20009;-52
2023/10/23 03:21:01;;;;;;;2.03;0.40;;;4.50;99.90;;;;;;25344371;23;20013;-52
2023/10/23 03:31:03;;;;;;;2.35;0.28;;;4.80;99.90;;;;;;25343776;23;20006;-52
2023/10/23 03:41:05;;;;;;;0.75;0.10;;;5.20;99.90;;;;;;25343530;23;20428;-53
2023/10/23 03:51:07;;;;;;;2.35;0.17;;;5.70;99.90;;;;;;25317031;23;20014;-51
2023/10/23 04:01:09;;;;;;;1.95;0.25;;;6.10;99.90;;;;;;25343084;23;20014;-51
2023/10/23 04:11:16;;;;;;;1.63;0.20;;;6.20;99.90;;;;;;25342459;23;20122;-53
2023/10/23 04:21:18;;;;;;;0.43;0.10;;;6.10;99.90;;;;;;25382041;23;20334;-57
2023/10/23 04:31:19;;;;;;;0.57;0.00;;;6.00;99.90;;;;;;25341763;23;20073;-51
2023/10/23 04:41:21;;;;;;;0.65;0.10;;;5.70;99.90;;;;;;25340932;23;20010;-53
2023/10/23 04:51:23;;;;;;;1.75;0.10;;;5.30;99.90;;;;;;25340561;23;20068;-58
2023/10/23 05:01:24;;;;;;;1.27;0.20;;;5.00;99.90;;;;;;25340241;23;20394;-57
2023/10/23 05:11:27;;;;;;;0.63;0.10;;;4.80;99.90;;;;;;25339980;23;20006;-53
2023/10/23 05:21:28;;;;;;;3.20;0.15;;;4.70;99.90;;;;;;25339604;23;20010;-52
2023/10/23 05:31:30;;;;;;;3.00;0.30;;;4.60;99.90;;;;;;25339198;23;20065;-58
2023/10/23 05:41:32;;;;;;;2.67;0.30;;;4.50;99.90;;;;;;25338718;23;20057;-57
2023/10/23 05:51:33;;;;;;;0.38;0.10;;;4.60;99.90;;;;;;25338824;23;20002;-57
2023/10/23 06:01:36;;;;;;;2.30;0.30;;;4.60;99.90;;;;;;25338766;23;20076;-51
2023/10/23 06:11:38;;;;;;;1.65;0.20;;;4.90;99.90;;;;;;25339702;23;20073;-57
2023/10/23 06:21:40;;;;;;;2.50;0.25;;;5.20;99.90;;;;;;25338236;23;20420;-56
2023/10/23 06:31:41;;;;;;;4.88;0.52;;;5.40;99.90;;;;;;25338197;23;20010;-57
2023/10/23 06:41:44;;;;;;;2.15;0.40;;;5.80;99.90;;;;;;25337853;23;20061;-53
2023/10/23 06:51:46;;;;;;;1.20;0.30;;;6.30;99.90;;;;;;25344888;23;20006;-50
2023/10/23 07:01:47;;;;;;;2.92;0.30;;;6.50;99.90;;;;;;25345266;23;20046;-58
2023/10/23 07:11:50;;;;;;;1.85;0.40;;;6.60;99.90;;;;;;25293948;23;20018;-58
2023/10/23 07:21:53;;;;;;;1.98;0.40;;;7.50;99.90;;;;;;25345628;23;20002;-53
2023/10/23 07:31:54;;;;;;;2.10;0.40;;;8.90;99.90;;;;;;25343878;23;20334;-53
2023/10/23 07:41:56;;;;;;;3.53;0.90;;;9.50;99.90;;;;;;25343269;23;20016;-51
2023/10/23 07:51:58;;;;;;;1.42;0.32;;;9.80;99.90;;;;;;25342547;23;20575;-59
2023/10/23 08:01:59;;;;;;;2.92;0.40;;;10.40;99.90;;;;;;25342366;23;20018;-50
2023/10/23 08:12:01;;;;;;;2.35;0.50;;;11.20;99.90;;;;;;25342568;23;20010;-61
2023/10/23 08:22:03;;;;;;;3.25;0.60;;;11.60;99.90;;;;;;25342358;23;20373;-61
2023/10/23 08:32:05;;;;;;;1.67;0.70;;;12.20;99.90;;;;;;25343523;23;20002;-54
2023/10/23 08:42:07;;;;;;;3.10;0.60;;;12.80;99.90;;;;;;25340928;23;20033;-61
2023/10/23 08:52:11;;;;;;;3.30;1.80;;;13.30;99.90;;;;;;25340373;23;20009;-61
2023/10/23 09:02:14;;;;;;;5.68;1.92;;;13.50;99.90;;;;;;25340073;23;20028;-53
2023/10/23 09:12:36;;;;;;;5.25;1.48;;;14.30;99.90;;;;;;25339630;23;20010;-63
2023/10/23 09:22:40;;;;;;;2.30;1.08;;;14.60;99.90;;;;;;25339699;23;20014;-62
2023/10/23 09:32:43;;;;;;;3.33;1.10;;;14.40;99.90;;;;;;25339386;23;20374;-60
2023/10/23 09:42:45;;;;;;;2.17;0.75;;;14.50;99.90;;;;;;25340592;23;20006;-61
2023/10/23 09:52:48;;;;;;;4.90;0.93;;;14.50;99.90;;;;;;25340035;23;20006;-60
2023/10/23 10:02:56;;;;;;;2.30;1.20;;;14.60;99.90;;;;;;25313172;23;20014;-61
2023/10/23 10:12:58;;;;;;;3.13;1.30;;;15.40;99.90;;;;;;25378973;23;20006;-62
2023/10/23 10:23:15;;;;;;;5.47;1.90;;;15.40;99.90;;;;;;25342548;23;20463;-60
2023/10/23 10:33:31;;;;;;;8.45;2.90;;;14.60;99.90;;;;;;25386285;23;20010;-54
2023/10/23 10:43:37;;;;;;;8.32;3.40;;;15.20;99.90;;;;;;25385509;23;20010;-54
2023/10/23 10:53:42;;;;;;;7.03;3.72;;;15.50;99.90;;;;;;25370705;23;20388;-53
2023/10/23 11:03:44;;;;;;;5.63;2.80;;;15.90;99.90;;;;;;25344870;23;20077;-62
2023/10/23 11:13:46;;;;;;;5.63;2.78;;;16.90;99.90;;;;;;25344495;23;20426;-61
2023/10/23 11:23:48;;;;;;;5.28;2.75;;;16.90;99.90;;;;;;25343633;23;19998;-61
2023/10/23 11:33:56;;;;;;;4.30;2.42;;;16.10;99.90;;;;;;25342663;23;20006;-60
2023/10/23 11:44:03;;;;;;;3.97;2.58;;;15.00;99.90;;;;;;25383140;23;20009;-60
2023/10/23 11:54:05;;;;;;;4.38;2.20;;;14.70;99.90;;;;;;25342390;23;20048;-60
2023/10/23 12:04:07;;;;;;;5.78;2.60;;;15.10;99.90;;;;;;25342087;23;20057;-61
2023/10/23 12:14:08;;;;;;;6.40;2.78;;;16.60;99.90;;;;;;25341932;23;20006;-49
2023/10/23 12:24:10;;;;;;;4.80;2.15;;;16.90;99.90;;;;;;25341119;23;20010;-49
2023/10/23 12:34:12;;;;;;;4.68;2.30;;;16.90;99.90;;;;;;25341043;23;20002;-62
2023/10/23 12:44:13;;;;;;;4.43;2.10;;;16.80;99.90;;;;;;25340356;23;20069;-60
2023/10/23 12:54:15;;;;;;;5.82;0.60;;;15.40;99.90;;;;;;25340695;23;20017;-61
2023/10/23 13:04:21;;;;;;;3.50;0.43;;;14.40;99.90;;;;;;25340185;23;20373;-61
2023/10/23 13:14:23;;;;;;;5.55;1.88;;;14.60;99.90;;;;;;25379779;23;20006;-63
2023/10/23 13:24:26;;;;;;;5.20;1.83;;;15.30;99.90;;;;;;25339145;23;20009;-63
2023/10/23 13:34:28;;;;;;;7.38;2.80;;;15.50;99.90;;;;;;25313336;23;20010;-60
2023/10/23 13:44:30;;;;;;;4.63;2.50;;;14.70;99.90;;;;;;25312602;23;20009;-60
2023/10/23 13:54:32;;;;;;;6.43;3.28;;;13.90;99.90;;;;;;25337623;23;20017;-60
2023/10/23 14:04:34;;;;;;;8.52;1.92;;;13.40;99.90;;;;;;25338416;23;20032;-60
2023/10/23 14:14:36;;;;;;;6.88;3.33;;;12.80;99.90;;;;;;25338212;23;20006;-54
2023/10/23 14:24:37;;;;;;;6.35;3.35;;;12.90;99.90;;;;;;25337745;23;20006;-60
2023/10/23 14:34:39;;;;;;;6.25;2.70;;;12.70;99.90;;;;;;25337837;23;20393;-59
2023/10/23 14:44:42;;;;;;;5.95;3.17;;;12.50;99.90;;;;;;25337382;23;20443;-59
2023/10/23 14:54:44;;;;;;;5.60;2.88;;;12.50;99.90;;;;;;25337559;23;20069;-54
2023/10/23 15:04:46;;;;;;;9.85;3.10;;;12.30;99.90;;;;;;25337639;23;20068;-60
2023/10/23 15:14:48;;;;;;;8.35;3.95;;;11.90;99.90;;;;;;25344129;23;20375;-59
2023/10/23 15:24:50;;;;;;;11.15;4.75;;;11.80;99.90;;;;;;25346045;23;20068;-59
2023/10/23 15:34:54;;;;;;;9.55;4.07;;;11.40;99.90;;;;;;25344403;23;20013;-59
2023/10/23 15:44:58;;;;;;;8.00;3.38;;;11.30;99.90;;;;;;25342893;23;20006;-60
2023/10/23 15:55:00;;;;;;;5.68;3.10;;;11.20;99.90;;;;;;25342549;23;20018;-59
2023/10/23 16:05:02;;;;;;;13.40;4.40;;;11.20;99.90;;;;;;25089723;23;20015;-59
2023/10/23 16:15:04;;;;;;;10.70;4.40;;;10.90;99.90;;;;;;25090042;23;20015;-60
2023/10/23 16:25:08;;;;;;;8.88;4.57;;;10.60;99.90;;;;;;25089450;23;20011;-57
2023/10/23 16:35:10;;;;;;;10.23;4.65;;;10.30;99.90;;;;;;25289187;23;20092;-58
2023/10/23 16:45:12;;;;;;;9.65;5.63;;;10.00;99.90;;;;;;25341241;23;20002;-58
2023/10/23 16:55:13;;;;;;;14.10;6.32;;;9.70;99.90;;;;;;25340661;23;20072;-58
2023/10/23 17:05:15;;;;;;;9.55;6.00;;;9.50;99.90;;;;;;25340815;23;20140;-58
2023/10/23 17:15:17;;;;;;;11.23;5.95;;;9.30;99.90;;;;;;25340217;23;20064;-58
2023/10/23 17:25:19;;;;;;;11.30;6.30;;;9.20;99.90;;;;;;25340114;23;20053;-58
2023/10/23 17:35:21;;;;;;;9.30;3.28;;;9.10;99.90;;;;;;25338415;23;20009;-56
2023/10/23 17:45:22;;;;;;;9.45;2.63;;;9.20;99.90;;;;;;25339852;23;20009;-58
2023/10/23 17:55:24;;;;;;;2.28;0.70;;;9.40;99.90;;;;;;25339152;23;20128;-49
2023/10/23 18:05:26;;;;;;;2.42;0.93;;;9.30;99.90;;;;;;25339032;23;20510;-58
2023/10/23 18:15:28;;;;;;;5.00;1.02;;;9.30;99.90;;;;;;25338879;23;20501;-59
2023/10/23 18:25:31;;;;;;;2.78;0.80;;;9.20;99.90;;;;;;25312668;23;20010;-48
2023/10/23 18:35:37;;;;;;;5.03;1.20;;;8.90;99.90;;;;;;25338406;23;20611;-59
2023/10/23 18:45:43;;;;;;;10.35;4.22;;;8.90;99.90;;;;;;25343146;23;20029;-49
2023/10/23 18:55:45;;;;;;;8.35;3.40;;;8.90;99.90;;;;;;25337348;23;20010;-58
2023/10/23 19:05:57;;;;;;;4.82;1.40;;;8.90;99.90;;;;;;25344959;23;20006;-50
2023/10/23 19:16:02;;;;;;;5.75;1.52;;;8.80;99.90;;;;;;25385335;23;20014;-48
2023/10/23 19:26:05;;;;;;;3.83;1.60;;;8.80;99.90;;;;;;25384482;23;20377;-51
2023/10/23 19:36:07;;;;;;;4.85;1.85;;;8.80;99.90;;;;;;25343992;23;20006;-48
2023/10/23 19:46:13;;;;;;;5.60;2.03;;;8.70;99.90;;;;;;25317858;23;20006;-46
2023/10/23 19:56:18;;;;;;;6.75;2.40;;;8.60;99.90;;;;;;25342099;23;20022;-52
2023/10/23 20:06:20;;;;;;;4.72;1.80;;;8.60;99.90;;;;;;25342437;23;20315;-49
2023/10/23 20:16:22;;;;;;;5.38;2.00;;;8.70;99.90;;;;;;25342517;23;20002;-49
2023/10/23 20:26:24;;;;;;;2.75;1.52;;;8.70;99.90;;;;;;25341585;23;20508;-48
2023/10/23 20:36:26;;;;;;;5.90;2.47;;;8.80;99.90;;;;;;25341179;23;20002;-58
2023/10/23 20:46:29;;;;;;;13.60;3.95;;;8.90;99.90;;;;;;25340990;23;20433;-52
2023/10/23 20:56:31;;;;;;;12.30;4.15;;;9.00;99.90;;;;;;25315392;23;20101;-49
2023/10/23 21:06:32;;;;;;;7.10;3.72;;;9.10;99.90;;;;;;25340440;23;20017;-48
2023/10/23 21:16:34;;;;;;;7.55;4.25;;;9.20;99.90;;;;;;25340189;23;20006;-50
2023/10/23 21:26:36;;;;;;;15.20;4.22;;;9.10;99.90;;;;;;25339485;23;20064;-48
2023/10/23 21:36:38;;;;;;;6.30;2.72;;;9.20;99.90;;;;;;25339133;23;20073;-48
2023/10/23 21:46:39;;;;;;;9.90;4.07;;;9.10;99.90;;;;;;25338980;23;20068;-51
2023/10/23 21:56:41;;;;;;;6.00;3.60;;;9.10;99.90;;;;;;25338606;23;20017;-49
2023/10/23 22:06:43;;;;;;;11.32;5.15;;;9.20;99.90;;;;;;25338724;23;20010;-49
2023/10/23 22:16:45;;;;;;;6.80;3.38;;;9.20;99.90;;;;;;25341231;23;20394;-52
2023/10/23 22:26:47;;;;;;;5.20;2.20;;;9.30;99.90;;;;;;25346704;23;20006;-48
2023/10/23 22:36:49;;;;;;;5.43;1.98;;;9.50;99.90;;;;;;25346482;23;20005;-53
2023/10/23 22:46:51;;;;;;;8.07;3.25;;;9.60;99.90;;;;;;25345856;23;20006;-53
2023/10/23 22:56:58;;;;;;;4.50;2.78;;;9.70;99.90;;;;;;25319831;23;20018;-58
2023/10/23 23:07:02;;;;;;;6.50;3.13;;;9.70;99.90;;;;;;25385568;23;20010;-49
2023/10/23 23:17:04;;;;;;;4.75;3.42;;;9.70;99.90;;;;;;25345012;23;20069;-48
2023/10/23 23:27:06;;;;;;;4.32;3.05;;;9.70;99.90;;;;;;25344112;23;20461;-52
2023/10/23 23:37:07;;;;;;;4.80;2.75;;;9.70;99.90;;;;;;25343999;23;20010;-57
2023/10/23 23:47:09;;;;;;;3.08;2.50;;;9.80;99.90;;;;;;25343469;23;20013;-50
2023/10/23 23:57:11;;;;;;;4.70;2.50;;;9.80;99.90;;;;;;25343021;23;20077;-57
